createdAt,value
2022-12-05T00:00:23.003Z,1012.02
2022-12-05T00:01:22.943Z,1012.02
2022-12-05T00:02:23.001Z,1012.01
2022-12-05T00:03:23.151Z,1011.97
2022-12-05T00:05:23.115Z,1012.00
2022-12-05T00:06:23.433Z,1011.99
2022-12-05T00:07:23.114Z,1011.95
2022-12-05T00:08:23.145Z,1011.97
2022-12-05T00:09:23.298Z,1011.95
2022-12-05T00:10:23.194Z,1011.97
2022-12-05T00:12:23.299Z,1011.95
2022-12-05T00:14:23.608Z,1012.01
2022-12-05T00:15:23.363Z,1012.02
2022-12-05T00:16:23.395Z,1012.03
2022-12-05T00:17:23.468Z,1012.02
2022-12-05T00:18:23.416Z,1012.02
2022-12-05T00:19:23.443Z,1012.02
2022-12-05T00:21:23.595Z,1012.03
2022-12-05T00:22:23.875Z,1012.03
2022-12-05T00:23:23.607Z,1012.04
2022-12-05T00:24:23.581Z,1012.03
2022-12-05T00:25:23.615Z,1012.04
2022-12-05T00:26:23.715Z,1012.08
2022-12-05T00:27:23.667Z,1012.05
2022-12-05T00:28:23.712Z,1012.04
2022-12-05T00:29:23.822Z,1011.98
2022-12-05T00:30:23.746Z,1012.04
2022-12-05T00:32:24.061Z,1012.04
2022-12-05T00:33:23.835Z,1012.01
2022-12-05T00:34:23.980Z,1012.05
2022-12-05T00:35:24.186Z,1012.04
2022-12-05T00:36:23.913Z,1012.04
2022-12-05T00:37:24.042Z,1012.07
2022-12-05T00:39:23.996Z,1012.03
2022-12-05T00:40:24.137Z,1012.03
2022-12-05T00:41:24.055Z,1012.07
2022-12-05T00:42:24.385Z,1012.00
2022-12-05T00:43:24.157Z,1012.05
2022-12-05T00:44:24.139Z,1012.06
2022-12-05T00:45:24.162Z,1012.08
2022-12-05T00:46:24.328Z,1012.05
2022-12-05T00:47:24.228Z,1012.14
2022-12-05T00:48:24.267Z,1012.08
2022-12-05T00:49:24.370Z,1012.08
2022-12-05T00:50:24.299Z,1012.08
2022-12-05T00:51:24.333Z,1012.09
2022-12-05T00:52:24.364Z,1012.09
2022-12-05T00:53:24.382Z,1012.06
2022-12-05T00:54:24.468Z,1012.08
2022-12-05T00:55:24.737Z,1012.08
2022-12-05T00:56:24.470Z,1012.09
2022-12-05T00:57:24.500Z,1012.08
2022-12-05T00:58:24.522Z,1012.03
2022-12-05T00:59:24.549Z,1011.99
2022-12-05T01:00:24.657Z,1012.00
2022-12-05T01:02:24.629Z,1012.02
2022-12-05T01:03:25.137Z,1012.01
2022-12-05T01:04:24.709Z,1012.01
2022-12-05T01:05:24.718Z,1012.04
2022-12-05T01:06:24.750Z,1012.05
2022-12-05T01:07:24.771Z,1012.04
2022-12-05T01:08:24.799Z,1012.04
2022-12-05T01:09:24.875Z,1012.02
2022-12-05T01:10:25.154Z,1012.02
2022-12-05T01:11:24.881Z,1012.04
2022-12-05T01:12:24.908Z,1012.02
2022-12-05T01:13:24.932Z,1012.01
2022-12-05T01:14:25.007Z,1012.01
2022-12-05T01:15:25.043Z,1012.01
2022-12-05T01:16:25.088Z,1012.03
2022-12-05T01:17:25.347Z,1012.01
2022-12-05T01:18:25.077Z,1012.02
2022-12-05T01:19:25.114Z,1012.06
2022-12-05T01:20:25.169Z,1012.03
2022-12-05T01:21:25.155Z,1012.11
2022-12-05T01:22:25.183Z,1012.07
2022-12-05T01:23:25.288Z,1012.10
2022-12-05T01:24:25.489Z,1012.09
2022-12-05T01:25:25.264Z,1012.12
2022-12-05T01:26:25.395Z,1012.09
2022-12-05T01:27:25.327Z,1012.09
2022-12-05T01:28:25.396Z,1012.15
2022-12-05T01:29:25.405Z,1012.18
2022-12-05T01:30:25.411Z,1012.11
2022-12-05T01:31:25.698Z,1012.16
2022-12-05T01:32:25.506Z,1012.12
2022-12-05T01:33:25.486Z,1012.16
2022-12-05T01:34:25.513Z,1012.20
2022-12-05T01:35:25.542Z,1012.19
2022-12-05T01:36:25.594Z,1012.25
2022-12-05T01:37:25.639Z,1012.24
2022-12-05T01:38:25.619Z,1012.20
2022-12-05T01:39:25.660Z,1012.21
2022-12-05T01:40:25.696Z,1012.22
2022-12-05T01:41:25.706Z,1012.23
2022-12-05T01:42:26.496Z,1012.25
2022-12-05T01:43:26.062Z,1012.24
2022-12-05T01:44:25.788Z,1012.22
2022-12-05T01:45:25.818Z,1012.20
2022-12-05T01:46:25.912Z,1012.21
2022-12-05T01:47:25.872Z,1012.23
2022-12-05T01:48:26.073Z,1012.26
2022-12-05T01:49:26.281Z,1012.27
2022-12-05T01:50:26.187Z,1012.22
2022-12-05T01:51:26.297Z,1012.22
2022-12-05T01:52:26.029Z,1012.27
2022-12-05T01:53:26.040Z,1012.24
2022-12-05T01:54:26.061Z,1012.23
2022-12-05T01:56:26.123Z,1012.22
2022-12-05T01:57:26.146Z,1012.27
2022-12-05T01:59:26.207Z,1012.27
2022-12-05T02:00:26.381Z,1012.30
2022-12-05T02:01:26.385Z,1012.30
2022-12-05T02:02:26.334Z,1012.29
2022-12-05T02:03:26.611Z,1012.32
2022-12-05T02:04:26.340Z,1012.31
2022-12-05T02:05:26.371Z,1012.30
2022-12-05T02:06:26.446Z,1012.31
2022-12-05T02:07:26.419Z,1012.31
2022-12-05T02:08:26.478Z,1012.31
2022-12-05T02:09:26.527Z,1012.31
2022-12-05T02:10:26.899Z,1012.32
2022-12-05T02:11:26.533Z,1012.32
2022-12-05T02:12:26.565Z,1012.29
2022-12-05T02:13:27.021Z,1012.28
2022-12-05T02:14:26.614Z,1012.31
2022-12-05T02:15:26.641Z,1012.29
2022-12-05T02:16:26.758Z,1012.30
2022-12-05T02:17:26.851Z,1012.26
2022-12-05T02:18:26.726Z,1012.27
2022-12-05T02:19:26.758Z,1012.28
2022-12-05T02:20:26.922Z,1012.30
2022-12-05T02:21:26.812Z,1012.33
2022-12-05T02:22:26.836Z,1012.32
2022-12-05T02:23:26.955Z,1012.31
2022-12-05T02:24:26.916Z,1012.32
2022-12-05T02:25:26.921Z,1012.36
2022-12-05T02:26:26.973Z,1012.38
2022-12-05T02:27:26.976Z,1012.37
2022-12-05T02:28:27.000Z,1012.37
2022-12-05T02:29:27.427Z,1012.35
2022-12-05T02:30:27.107Z,1012.35
2022-12-05T02:31:27.145Z,1012.30
2022-12-05T02:32:27.167Z,1012.34
2022-12-05T02:33:27.136Z,1012.31
2022-12-05T02:34:27.237Z,1012.32
2022-12-05T02:35:27.242Z,1012.28
2022-12-05T02:37:27.289Z,1012.28
2022-12-05T02:38:27.283Z,1012.27
2022-12-05T02:39:27.307Z,1012.28
2022-12-05T02:40:27.361Z,1012.29
2022-12-05T02:41:27.359Z,1012.31
2022-12-05T02:42:27.694Z,1012.30
2022-12-05T02:43:27.458Z,1012.31
2022-12-05T02:44:28.194Z,1012.32
2022-12-05T02:45:27.532Z,1012.34
2022-12-05T02:46:27.559Z,1012.34
2022-12-05T02:47:27.530Z,1012.34
2022-12-05T02:48:27.551Z,1012.37
2022-12-05T02:49:27.683Z,1012.35
2022-12-05T02:50:27.606Z,1012.36
2022-12-05T02:51:27.655Z,1012.32
2022-12-05T02:52:27.708Z,1012.31
2022-12-05T02:53:27.687Z,1012.34
2022-12-05T02:54:27.714Z,1012.37
2022-12-05T02:55:27.748Z,1012.35
2022-12-05T02:56:27.793Z,1012.34
2022-12-05T02:57:27.882Z,1012.36
2022-12-05T02:58:30.693Z,1012.34
2022-12-05T02:59:27.952Z,1012.36
2022-12-05T03:00:28.286Z,1012.39
2022-12-05T03:01:28.025Z,1012.36
2022-12-05T03:02:27.983Z,1012.41
2022-12-05T03:03:27.989Z,1012.39
2022-12-05T03:04:28.096Z,1012.38
2022-12-05T03:05:28.108Z,1012.39
2022-12-05T03:06:28.117Z,1012.43
2022-12-05T03:07:28.072Z,1012.43
2022-12-05T03:08:28.098Z,1012.44
2022-12-05T03:09:28.227Z,1012.48
2022-12-05T03:10:28.158Z,1012.51
2022-12-05T03:11:28.187Z,1012.52
2022-12-05T03:12:28.233Z,1012.56
2022-12-05T03:13:28.538Z,1012.56
2022-12-05T03:14:28.272Z,1012.60
2022-12-05T03:15:28.289Z,1012.60
2022-12-05T03:16:28.380Z,1012.60
2022-12-05T03:17:28.423Z,1012.57
2022-12-05T03:18:28.376Z,1012.55
2022-12-05T03:19:28.420Z,1012.61
2022-12-05T03:20:28.428Z,1012.62
2022-12-05T03:21:28.459Z,1012.63
2022-12-05T03:22:28.493Z,1012.59
2022-12-05T03:23:28.560Z,1012.60
2022-12-05T03:25:28.569Z,1012.62
2022-12-05T03:26:28.986Z,1012.58
2022-12-05T03:28:28.691Z,1012.61
2022-12-05T03:29:28.730Z,1012.63
2022-12-05T03:30:28.749Z,1012.62
2022-12-05T03:31:28.730Z,1012.66
2022-12-05T03:32:28.810Z,1012.68
2022-12-05T03:34:28.814Z,1012.67
2022-12-05T03:35:28.909Z,1012.68
2022-12-05T03:36:28.883Z,1012.66
2022-12-05T03:37:29.067Z,1012.66
2022-12-05T03:38:28.929Z,1012.66
2022-12-05T03:39:28.951Z,1012.67
2022-12-05T03:40:28.991Z,1012.66
2022-12-05T03:41:29.007Z,1012.59
2022-12-05T03:42:29.035Z,1012.61
2022-12-05T03:43:29.092Z,1012.63
2022-12-05T03:44:29.362Z,1012.62
2022-12-05T03:45:29.214Z,1012.61
2022-12-05T03:46:29.247Z,1012.59
2022-12-05T03:48:29.248Z,1012.61
2022-12-05T03:49:33.680Z,1012.58
2022-12-05T03:50:29.251Z,1012.63
2022-12-05T03:51:29.580Z,1012.62
2022-12-05T03:52:29.374Z,1012.63
2022-12-05T03:53:29.387Z,1012.67
2022-12-05T03:54:29.383Z,1012.69
2022-12-05T03:55:29.498Z,1012.68
2022-12-05T03:56:29.420Z,1012.69
2022-12-05T03:57:29.563Z,1012.67
2022-12-05T03:58:29.774Z,1012.65
2022-12-05T03:59:29.501Z,1012.70
2022-12-05T04:00:29.568Z,1012.71
2022-12-05T04:01:29.657Z,1012.68
2022-12-05T04:02:29.580Z,1012.65
2022-12-05T04:03:29.659Z,1012.67
2022-12-05T04:04:29.638Z,1012.68
2022-12-05T04:06:29.845Z,1012.69
2022-12-05T04:07:29.776Z,1012.66
2022-12-05T04:08:29.752Z,1012.70
2022-12-05T04:09:29.832Z,1012.67
2022-12-05T04:10:29.801Z,1012.67
2022-12-05T04:11:29.878Z,1012.69
2022-12-05T04:13:29.884Z,1012.72
2022-12-05T04:14:29.940Z,1012.70
2022-12-05T04:15:30.109Z,1012.72
2022-12-05T04:16:30.185Z,1012.75
2022-12-05T04:17:29.995Z,1012.73
2022-12-05T04:18:30.321Z,1012.75
2022-12-05T04:19:30.055Z,1012.76
2022-12-05T04:20:30.107Z,1012.75
2022-12-05T04:21:30.167Z,1012.75
2022-12-05T04:22:30.134Z,1012.76
2022-12-05T04:23:30.282Z,1012.76
2022-12-05T04:24:30.186Z,1012.77
2022-12-05T04:25:30.215Z,1012.78
2022-12-05T04:26:30.286Z,1012.77
2022-12-05T04:27:30.270Z,1012.82
2022-12-05T04:28:30.296Z,1012.78
2022-12-05T04:29:30.373Z,1012.80
2022-12-05T04:30:30.355Z,1012.83
2022-12-05T04:31:30.442Z,1012.79
2022-12-05T04:32:30.593Z,1012.80
2022-12-05T04:33:30.793Z,1012.81
2022-12-05T04:34:30.462Z,1012.80
2022-12-05T04:35:30.586Z,1012.84
2022-12-05T04:36:30.519Z,1012.85
2022-12-05T04:37:30.548Z,1012.84
2022-12-05T04:38:30.817Z,1012.87
2022-12-05T04:39:30.601Z,1012.84
2022-12-05T04:40:30.700Z,1012.89
2022-12-05T04:41:30.652Z,1012.88
2022-12-05T04:42:30.677Z,1012.91
2022-12-05T04:43:30.748Z,1012.88
2022-12-05T04:44:30.836Z,1012.92
2022-12-05T04:45:30.861Z,1012.91
2022-12-05T04:46:30.943Z,1012.92
2022-12-05T04:47:30.893Z,1012.88
2022-12-05T04:48:30.872Z,1012.87
2022-12-05T04:49:30.926Z,1012.89
2022-12-05T04:50:30.895Z,1012.83
2022-12-05T04:52:31.037Z,1012.81
2022-12-05T04:53:31.010Z,1012.89
2022-12-05T04:54:31.006Z,1012.90
2022-12-05T04:55:31.059Z,1012.85
2022-12-05T04:56:31.069Z,1012.90
2022-12-05T04:58:31.123Z,1012.85
2022-12-05T04:59:31.156Z,1012.88
2022-12-05T05:00:31.217Z,1012.86
2022-12-05T05:01:31.631Z,1012.89
2022-12-05T05:02:31.286Z,1012.89
2022-12-05T05:04:31.307Z,1012.89
2022-12-05T05:05:31.310Z,1012.91
2022-12-05T05:06:31.371Z,1012.91
2022-12-05T05:07:31.390Z,1012.93
2022-12-05T05:08:31.394Z,1012.96
2022-12-05T05:09:31.489Z,1012.92
2022-12-05T05:10:31.445Z,1012.94
2022-12-05T05:11:31.476Z,1012.89
2022-12-05T05:13:32.009Z,1012.90
2022-12-05T05:14:31.858Z,1012.90
2022-12-05T05:15:31.670Z,1012.88
2022-12-05T05:16:31.718Z,1012.88
2022-12-05T05:17:31.640Z,1012.91
2022-12-05T05:18:31.667Z,1012.94
2022-12-05T05:19:32.506Z,1012.94
2022-12-05T05:20:31.999Z,1012.98
2022-12-05T05:21:31.749Z,1012.97
2022-12-05T05:22:31.773Z,1013.01
2022-12-05T05:23:31.834Z,1013.02
2022-12-05T05:24:31.830Z,1013.06
2022-12-05T05:25:31.867Z,1013.02
2022-12-05T05:26:32.283Z,1013.02
2022-12-05T05:27:31.909Z,1013.05
2022-12-05T05:28:31.943Z,1013.05
2022-12-05T05:29:31.980Z,1013.08
2022-12-05T05:30:32.002Z,1013.08
2022-12-05T05:31:32.173Z,1013.07
2022-12-05T05:32:32.145Z,1013.07
2022-12-05T05:33:32.078Z,1013.04
2022-12-05T05:35:32.202Z,1012.97
2022-12-05T05:36:32.209Z,1013.01
2022-12-05T05:37:32.182Z,1012.97
2022-12-05T05:38:32.216Z,1013.01
2022-12-05T05:39:32.593Z,1013.03
2022-12-05T05:40:32.272Z,1013.06
2022-12-05T05:41:32.302Z,1013.06
2022-12-05T05:42:32.325Z,1013.06
2022-12-05T05:43:32.517Z,1013.04
2022-12-05T05:44:32.377Z,1013.12
2022-12-05T05:45:32.407Z,1013.10
2022-12-05T05:46:32.787Z,1013.07
2022-12-05T05:47:32.463Z,1013.13
2022-12-05T05:48:32.489Z,1013.11
2022-12-05T05:49:32.881Z,1013.11
2022-12-05T05:51:32.601Z,1013.12
2022-12-05T05:52:32.724Z,1013.17
2022-12-05T05:53:32.629Z,1013.19
2022-12-05T05:54:32.663Z,1013.18
2022-12-05T05:55:32.709Z,1013.15
2022-12-05T05:56:32.721Z,1013.16
2022-12-05T05:57:32.737Z,1013.18
2022-12-05T05:58:32.858Z,1013.16
2022-12-05T05:59:33.137Z,1013.21
2022-12-05T06:00:32.815Z,1013.20
2022-12-05T06:01:32.884Z,1013.18
2022-12-05T06:02:32.937Z,1013.15
2022-12-05T06:03:33.032Z,1013.15
2022-12-05T06:04:32.924Z,1013.14
2022-12-05T06:05:32.960Z,1013.18
2022-12-05T06:06:33.023Z,1013.15
2022-12-05T06:07:33.141Z,1013.18
2022-12-05T06:08:33.060Z,1013.20
2022-12-05T06:09:33.182Z,1013.16
2022-12-05T06:10:33.093Z,1013.20
2022-12-05T06:11:33.174Z,1013.23
2022-12-05T06:12:33.236Z,1013.25
2022-12-05T06:13:33.179Z,1013.25
2022-12-05T06:14:33.206Z,1013.27
2022-12-05T06:15:33.295Z,1013.26
2022-12-05T06:16:33.317Z,1013.24
2022-12-05T06:17:33.291Z,1013.23
2022-12-05T06:18:33.342Z,1013.26
2022-12-05T06:19:33.343Z,1013.22
2022-12-05T06:20:33.362Z,1013.23
2022-12-05T06:21:33.407Z,1013.22
2022-12-05T06:22:33.420Z,1013.24
2022-12-05T06:24:33.511Z,1013.24
2022-12-05T06:25:33.504Z,1013.25
2022-12-05T06:26:33.527Z,1013.25
2022-12-05T06:27:33.557Z,1013.27
2022-12-05T06:28:33.587Z,1013.25
2022-12-05T06:29:34.260Z,1013.25
2022-12-05T06:30:33.891Z,1013.24
2022-12-05T06:32:33.791Z,1013.30
2022-12-05T06:33:33.727Z,1013.31
2022-12-05T06:34:33.748Z,1013.29
2022-12-05T06:35:33.817Z,1013.32
2022-12-05T06:36:33.806Z,1013.32
2022-12-05T06:38:36.833Z,1013.32
2022-12-05T06:39:33.891Z,1013.37
2022-12-05T06:40:33.938Z,1013.38
2022-12-05T06:41:33.942Z,1013.35
2022-12-05T06:42:34.067Z,1013.38
2022-12-05T06:43:33.994Z,1013.40
2022-12-05T06:44:34.028Z,1013.38
2022-12-05T06:45:34.098Z,1013.40
2022-12-05T06:46:34.103Z,1013.39
2022-12-05T06:47:34.115Z,1013.41
2022-12-05T06:48:34.505Z,1013.40
2022-12-05T06:49:37.789Z,1013.39
2022-12-05T06:50:34.187Z,1013.39
2022-12-05T06:51:34.312Z,1013.40
2022-12-05T06:52:34.251Z,1013.42
2022-12-05T06:53:34.273Z,1013.42
2022-12-05T06:54:34.759Z,1013.41
2022-12-05T06:55:34.723Z,1013.44
2022-12-05T06:56:34.383Z,1013.40
2022-12-05T06:57:34.387Z,1013.45
2022-12-05T06:58:34.505Z,1013.46
2022-12-05T07:01:34.898Z,1013.47
2022-12-05T07:02:34.964Z,1013.50
2022-12-05T07:03:34.539Z,1013.49
2022-12-05T07:04:34.570Z,1013.49
2022-12-05T07:06:34.664Z,1013.50
2022-12-05T07:07:34.950Z,1013.52
2022-12-05T07:08:34.676Z,1013.57
2022-12-05T07:10:34.728Z,1013.53
2022-12-05T07:11:34.760Z,1013.58
2022-12-05T07:12:34.906Z,1013.54
2022-12-05T07:13:34.816Z,1013.58
2022-12-05T07:14:50.662Z,1013.58
2022-12-05T07:15:34.977Z,1013.57
2022-12-05T07:16:35.002Z,1013.62
2022-12-05T07:17:34.920Z,1013.63
2022-12-05T07:18:35.010Z,1013.66
2022-12-05T07:19:35.025Z,1013.65
2022-12-05T07:21:03.407Z,1013.67
2022-12-05T07:21:35.333Z,1013.67
2022-12-05T07:22:35.160Z,1013.69
2022-12-05T07:23:35.087Z,1013.71
2022-12-05T07:24:35.129Z,1013.74
2022-12-05T07:25:35.139Z,1013.73
2022-12-05T07:26:35.362Z,1013.79
2022-12-05T07:27:35.351Z,1013.78
2022-12-05T07:28:35.258Z,1013.80
2022-12-05T07:29:35.290Z,1013.81
2022-12-05T07:30:35.298Z,1013.83
2022-12-05T07:31:35.341Z,1013.80
2022-12-05T07:33:35.719Z,1013.81
2022-12-05T07:34:35.384Z,1013.88
2022-12-05T07:35:35.484Z,1013.85
2022-12-05T07:36:35.445Z,1013.84
2022-12-05T07:37:35.466Z,1013.83
2022-12-05T07:38:35.546Z,1013.85
2022-12-05T07:39:35.771Z,1013.84
2022-12-05T07:40:35.604Z,1013.89
2022-12-05T07:41:35.617Z,1013.82
2022-12-05T07:42:35.610Z,1013.87
2022-12-05T07:43:35.634Z,1013.89
2022-12-05T07:44:35.736Z,1013.85
2022-12-05T07:45:36.026Z,1013.89
2022-12-05T07:46:35.834Z,1013.90
2022-12-05T07:48:35.764Z,1013.92
2022-12-05T07:49:35.796Z,1013.91
2022-12-05T07:50:35.880Z,1013.92
2022-12-05T07:52:36.381Z,1013.92
2022-12-05T07:53:36.074Z,1013.91
2022-12-05T07:54:36.031Z,1013.94
2022-12-05T07:55:36.122Z,1013.93
2022-12-05T07:56:35.980Z,1013.99
2022-12-05T07:57:36.007Z,1013.98
2022-12-05T07:58:36.126Z,1013.98
2022-12-05T07:59:36.064Z,1014.00
2022-12-05T08:00:36.168Z,1014.01
2022-12-05T08:01:36.287Z,1013.98
2022-12-05T08:02:40.468Z,1014.02
2022-12-05T08:03:36.183Z,1014.00
2022-12-05T08:04:36.660Z,1014.00
2022-12-05T08:05:36.226Z,1013.98
2022-12-05T08:06:36.275Z,1014.00
2022-12-05T08:07:36.481Z,1014.02
2022-12-05T08:08:36.312Z,1014.04
2022-12-05T08:09:36.373Z,1014.04
2022-12-05T08:10:36.364Z,1014.09
2022-12-05T08:11:36.743Z,1014.07
2022-12-05T08:12:36.422Z,1014.11
2022-12-05T08:13:36.443Z,1014.09
2022-12-05T08:15:36.535Z,1014.12
2022-12-05T08:16:36.640Z,1014.14
2022-12-05T08:17:36.829Z,1014.16
2022-12-05T08:18:36.907Z,1014.16
2022-12-05T08:19:36.608Z,1014.17
2022-12-05T08:20:36.654Z,1014.20
2022-12-05T08:21:36.687Z,1014.17
2022-12-05T08:22:36.691Z,1014.18
2022-12-05T08:23:36.718Z,1014.18
2022-12-05T08:24:36.800Z,1014.23
2022-12-05T08:25:36.781Z,1014.23
2022-12-05T08:26:36.797Z,1014.24
2022-12-05T08:27:36.838Z,1014.26
2022-12-05T08:28:36.975Z,1014.27
2022-12-05T08:29:36.882Z,1014.29
2022-12-05T08:30:36.968Z,1014.31
2022-12-05T08:31:37.256Z,1014.31
2022-12-05T08:32:36.987Z,1014.31
2022-12-05T08:33:37.012Z,1014.27
2022-12-05T08:34:37.068Z,1014.33
2022-12-05T08:35:37.189Z,1014.32
2022-12-05T08:36:37.083Z,1014.34
2022-12-05T08:37:37.504Z,1014.36
2022-12-05T08:38:37.236Z,1014.37
2022-12-05T08:39:38.840Z,1014.40
2022-12-05T08:40:37.184Z,1014.44
2022-12-05T08:41:37.298Z,1014.42
2022-12-05T08:42:37.234Z,1014.48
2022-12-05T08:43:37.566Z,1014.49
2022-12-05T08:44:37.360Z,1014.49
2022-12-05T08:45:37.332Z,1014.50
2022-12-05T08:46:37.476Z,1014.55
2022-12-05T08:47:37.373Z,1014.53
2022-12-05T08:48:37.422Z,1014.53
2022-12-05T08:49:37.434Z,1014.57
2022-12-05T08:50:37.513Z,1014.56
2022-12-05T08:51:37.534Z,1014.56
2022-12-05T08:52:37.623Z,1014.56
2022-12-05T08:53:43.851Z,1014.58
2022-12-05T08:54:37.566Z,1014.56
2022-12-05T08:55:37.842Z,1014.58
2022-12-05T08:56:37.719Z,1014.55
2022-12-05T08:57:37.989Z,1014.62
2022-12-05T08:58:37.745Z,1014.57
2022-12-05T08:59:37.705Z,1014.58
2022-12-05T09:00:37.722Z,1014.58
2022-12-05T09:01:37.834Z,1014.60
2022-12-05T09:03:38.813Z,1014.61
2022-12-05T09:04:37.896Z,1014.62
2022-12-05T09:05:37.867Z,1014.57
2022-12-05T09:06:37.894Z,1014.59
2022-12-05T09:07:38.016Z,1014.58
2022-12-05T09:08:37.952Z,1014.59
2022-12-05T09:09:38.003Z,1014.56
2022-12-05T09:10:38.063Z,1014.57
2022-12-05T09:11:38.033Z,1014.60
2022-12-05T09:12:38.098Z,1014.58
2022-12-05T09:13:38.099Z,1014.58
2022-12-05T09:14:38.114Z,1014.61
2022-12-05T09:15:38.196Z,1014.60
2022-12-05T09:16:39.124Z,1014.63
2022-12-05T09:17:38.187Z,1014.64
2022-12-05T09:18:38.300Z,1014.64
2022-12-05T09:20:38.644Z,1014.67
2022-12-05T09:21:38.370Z,1014.65
2022-12-05T09:22:38.333Z,1014.67
2022-12-05T09:23:38.360Z,1014.67
2022-12-05T09:24:38.440Z,1014.69
2022-12-05T09:25:38.407Z,1014.69
2022-12-05T09:26:38.430Z,1014.69
2022-12-05T09:28:38.562Z,1014.70
2022-12-05T09:29:38.522Z,1014.70
2022-12-05T09:30:38.698Z,1014.69
2022-12-05T09:31:38.732Z,1014.72
2022-12-05T09:32:38.605Z,1014.73
2022-12-05T09:33:38.681Z,1014.74
2022-12-05T09:34:38.649Z,1014.77
2022-12-05T09:35:38.753Z,1014.74
2022-12-05T09:37:40.213Z,1014.72
2022-12-05T09:38:38.828Z,1014.72
2022-12-05T09:39:38.808Z,1014.69
2022-12-05T09:40:38.814Z,1014.65
2022-12-05T09:41:38.931Z,1014.66
2022-12-05T09:42:38.869Z,1014.66
2022-12-05T09:43:38.903Z,1014.68
2022-12-05T09:44:39.279Z,1014.67
2022-12-05T09:45:38.958Z,1014.70
2022-12-05T09:46:39.079Z,1014.69
2022-12-05T09:47:39.055Z,1014.70
2022-12-05T09:48:39.034Z,1014.71
2022-12-05T09:49:39.060Z,1014.70
2022-12-05T09:50:39.239Z,1014.72
2022-12-05T09:51:39.465Z,1014.72
2022-12-05T09:52:39.143Z,1014.72
2022-12-05T09:53:39.191Z,1014.69
2022-12-05T09:54:39.199Z,1014.70
2022-12-05T09:56:39.308Z,1014.73
2022-12-05T09:57:39.281Z,1014.71
2022-12-05T09:58:39.611Z,1014.70
2022-12-05T09:59:39.436Z,1014.72
2022-12-05T10:00:39.363Z,1014.71
2022-12-05T10:01:39.547Z,1014.71
2022-12-05T10:02:39.417Z,1014.71
2022-12-05T10:03:39.557Z,1014.70
2022-12-05T10:04:39.823Z,1014.65
2022-12-05T10:05:39.497Z,1014.69
2022-12-05T10:06:39.530Z,1014.67
2022-12-05T10:07:39.652Z,1014.67
2022-12-05T10:08:39.586Z,1014.65
2022-12-05T10:09:39.628Z,1014.65
2022-12-05T10:10:39.734Z,1014.63
2022-12-05T10:11:39.662Z,1014.66
2022-12-05T10:12:39.693Z,1014.62
2022-12-05T10:13:39.772Z,1014.62
2022-12-05T10:14:39.745Z,1014.63
2022-12-05T10:15:42.676Z,1014.64
2022-12-05T10:16:40.192Z,1014.63
2022-12-05T10:17:39.825Z,1014.62
2022-12-05T10:18:40.000Z,1014.66
2022-12-05T10:20:39.921Z,1014.69
2022-12-05T10:21:39.987Z,1014.66
2022-12-05T10:22:39.975Z,1014.69
2022-12-05T10:23:56.973Z,1014.69
2022-12-05T10:24:40.090Z,1014.69
2022-12-05T10:25:40.070Z,1014.70
2022-12-05T10:26:40.076Z,1014.70
2022-12-05T10:27:40.681Z,1014.72
2022-12-05T10:28:40.147Z,1014.74
2022-12-05T10:29:40.457Z,1014.72
2022-12-05T10:30:40.286Z,1014.73
2022-12-05T10:32:40.544Z,1014.78
2022-12-05T10:33:40.274Z,1014.80
2022-12-05T10:34:40.291Z,1014.79
2022-12-05T10:35:40.336Z,1014.83
2022-12-05T10:36:40.397Z,1014.81
2022-12-05T10:37:40.376Z,1014.79
2022-12-05T10:38:40.550Z,1014.79
2022-12-05T10:39:40.424Z,1014.81
2022-12-05T10:41:40.643Z,1014.82
2022-12-05T10:42:40.811Z,1014.83
2022-12-05T10:43:40.533Z,1014.83
2022-12-05T10:45:40.597Z,1014.85
2022-12-05T10:46:40.654Z,1014.83
2022-12-05T10:47:40.702Z,1014.86
2022-12-05T10:48:40.669Z,1014.86
2022-12-05T10:50:40.761Z,1014.88
2022-12-05T10:51:40.756Z,1014.84
2022-12-05T10:52:40.780Z,1014.86
2022-12-05T10:53:40.872Z,1014.87
2022-12-05T10:54:40.834Z,1014.88
2022-12-05T10:55:41.208Z,1014.88
2022-12-05T10:56:40.902Z,1014.85
2022-12-05T10:57:40.944Z,1014.84
2022-12-05T10:58:41.009Z,1014.83
2022-12-05T10:59:40.983Z,1014.85
2022-12-05T11:00:40.995Z,1014.81
2022-12-05T11:01:41.339Z,1014.85
2022-12-05T11:02:41.113Z,1014.85
2022-12-05T11:03:41.082Z,1014.79
2022-12-05T11:04:41.268Z,1014.81
2022-12-05T11:05:41.205Z,1014.81
2022-12-05T11:06:41.213Z,1014.79
2022-12-05T11:07:41.431Z,1014.80
2022-12-05T11:09:03.907Z,1014.79
2022-12-05T11:09:41.246Z,1014.79
2022-12-05T11:10:41.326Z,1014.79
2022-12-05T11:11:41.305Z,1014.77
2022-12-05T11:12:41.325Z,1014.79
2022-12-05T11:13:41.816Z,1014.76
2022-12-05T11:14:41.486Z,1014.82
2022-12-05T11:15:41.461Z,1014.73
2022-12-05T11:16:41.588Z,1014.76
2022-12-05T11:18:41.506Z,1014.80
2022-12-05T11:19:41.530Z,1014.72
2022-12-05T11:20:41.944Z,1014.75
2022-12-05T11:21:41.577Z,1014.76
2022-12-05T11:22:45.787Z,1014.75
2022-12-05T11:23:41.678Z,1014.80
2022-12-05T11:24:41.778Z,1014.78
2022-12-05T11:25:41.702Z,1014.80
2022-12-05T11:26:41.718Z,1014.76
2022-12-05T11:27:42.094Z,1014.79
2022-12-05T11:28:41.770Z,1014.76
2022-12-05T11:29:41.822Z,1014.77
2022-12-05T11:30:41.886Z,1014.80
2022-12-05T11:31:41.961Z,1014.79
2022-12-05T11:32:41.878Z,1014.76
2022-12-05T11:33:41.955Z,1014.79
2022-12-05T11:34:42.325Z,1014.77
2022-12-05T11:35:41.993Z,1014.77
2022-12-05T11:36:41.991Z,1014.78
2022-12-05T11:37:42.012Z,1014.78
2022-12-05T11:38:42.049Z,1014.78
2022-12-05T11:39:42.075Z,1014.77
2022-12-05T11:40:42.104Z,1014.77
2022-12-05T11:41:42.190Z,1014.73
2022-12-05T11:42:42.144Z,1014.74
2022-12-05T11:43:42.180Z,1014.76
2022-12-05T11:44:42.263Z,1014.76
2022-12-05T11:45:42.250Z,1014.74
2022-12-05T11:46:42.333Z,1014.73
2022-12-05T11:47:42.372Z,1014.76
2022-12-05T11:48:42.310Z,1014.73
2022-12-05T11:50:42.393Z,1014.74
2022-12-05T11:51:42.452Z,1014.74
2022-12-05T11:52:42.424Z,1014.71
2022-12-05T11:53:42.745Z,1014.71
2022-12-05T11:55:04.375Z,1014.71
2022-12-05T11:55:42.502Z,1014.70
2022-12-05T11:56:42.637Z,1014.71
2022-12-05T11:57:45.049Z,1014.74
2022-12-05T11:58:42.586Z,1014.74
2022-12-05T11:59:42.912Z,1014.70
2022-12-05T12:00:42.725Z,1014.70
2022-12-05T12:01:42.778Z,1014.69
2022-12-05T12:02:42.850Z,1014.69
2022-12-05T12:03:42.823Z,1014.68
2022-12-05T12:04:42.812Z,1014.66
2022-12-05T12:05:42.781Z,1014.69
2022-12-05T12:06:42.834Z,1014.70
2022-12-05T12:07:42.874Z,1014.68
2022-12-05T12:08:42.865Z,1014.69
2022-12-05T12:10:43.220Z,1014.71
2022-12-05T12:11:42.944Z,1014.71
2022-12-05T12:12:43.162Z,1014.69
2022-12-05T12:14:43.023Z,1014.72
2022-12-05T12:15:43.214Z,1014.72
2022-12-05T12:16:43.173Z,1014.67
2022-12-05T12:17:43.123Z,1014.70
2022-12-05T12:18:43.134Z,1014.69
2022-12-05T12:19:43.187Z,1014.70
2022-12-05T12:20:43.190Z,1014.71
2022-12-05T12:21:43.239Z,1014.75
2022-12-05T12:22:43.340Z,1014.70
2022-12-05T12:23:43.664Z,1014.74
2022-12-05T12:24:43.307Z,1014.75
2022-12-05T12:25:43.326Z,1014.74
2022-12-05T12:26:43.347Z,1014.72
2022-12-05T12:27:43.449Z,1014.73
2022-12-05T12:28:43.404Z,1014.73
2022-12-05T12:30:43.760Z,1014.69
2022-12-05T12:31:43.773Z,1014.72
2022-12-05T12:32:43.838Z,1014.67
2022-12-05T12:33:43.689Z,1014.68
2022-12-05T12:34:43.665Z,1014.65
2022-12-05T12:35:43.791Z,1014.67
2022-12-05T12:36:43.756Z,1014.67
2022-12-05T12:37:43.668Z,1014.64
2022-12-05T12:38:48.161Z,1014.66
2022-12-05T12:39:43.699Z,1014.64
2022-12-05T12:40:43.742Z,1014.58
2022-12-05T12:41:43.808Z,1014.63
2022-12-05T12:42:43.801Z,1014.64
2022-12-05T12:43:59.366Z,1014.68
2022-12-05T12:44:43.952Z,1014.64
2022-12-05T12:45:43.932Z,1014.64
2022-12-05T12:46:43.897Z,1014.59
2022-12-05T12:47:44.243Z,1014.65
2022-12-05T12:48:43.952Z,1014.62
2022-12-05T12:49:43.995Z,1014.65
2022-12-05T12:50:44.322Z,1014.63
2022-12-05T12:51:44.035Z,1014.62
2022-12-05T12:52:44.066Z,1014.63
2022-12-05T12:53:44.159Z,1014.63